x

Passage Island, Mi (pilm4) Weather Station

6:00am - Thu 21st Sep 2017 All times are CDT. -5 hours from GMT.

  • Wind
    1mph, 1mph gusts
  • Air Temp 56°f
  • Sea Pressure 1018.7mb
  • Passage Island, Mi
  • Passage Island, Mi

More Historic Weather Station data

Upgrade to MSW Pro to gain access to the past 30 days of data for over 8000 Wavebouys and Weather Stations around the globe.

Join

Comparision Forecast

View Surf forecast
   
Thu 09/21 6:00am 1 1 mph 1018.7mb 56f
5:00am 2 5 mph 1017.8mb 56f
4:00am 3 5 mph 1017.3mb 56f
3:00am  -  2 mph 1017.1mb 57f
2:00am 15 15 mph 1016.4mb 59f
1:00am 7 7 mph 1016.3mb 59f
12:00am 7 7 mph 1015.1mb 59f
Wed 09/20 11:00pm 11 11 mph 1014.2mb 58f
10:00pm 16 16 mph 1012.8mb 58f
9:00pm 16 17 mph 1011.9mb 59f
8:00pm 13 13 mph 1011.2mb 60f
7:00pm 8 9 mph 1010.3mb 60f
6:00pm 15 15 mph 1009.7mb 60f
5:00pm 18 20 mph 1009.3mb 60f
4:00pm 22 23 mph 1008.9mb 58f
3:00pm 23 25 mph 1008.4mb 58f
2:00pm 25 29 mph 1008.1mb 59f
1:00pm 32 37 mph 1008.4mb 58f
12:00pm 34 43 mph 1008.9mb 58f
11:00am 38 43 mph 1008.1mb 58f
10:00am 32 37 mph 1008.7mb 58f
9:00am 31 34 mph 1010.3mb 57f
8:00am 18 20 mph 1012.7mb 57f
7:00am 14 16 mph 1013.3mb 57f
6:00am 18 21 mph 1011.9mb 57f
5:00am 18 18 mph 1011.5mb 56f
4:00am 20 22 mph 1012.2mb 57f
3:00am 20 21 mph 1012.7mb 56f
2:00am 18 20 mph 1013mb 58f
1:00am 17 18 mph 1014.1mb 57f
12:00am 18 20 mph 1014.1mb 58f
Tue 09/19 11:00pm 21 23 mph 1013.7mb 58f
10:00pm 21 22 mph 1014.5mb 58f
9:00pm 17 18 mph 1015.1mb 57f
8:00pm 17 18 mph 1015.6mb 56f
7:00pm 15 16 mph 1015.8mb 56f
6:00pm 16 17 mph 1016.1mb 56f
5:00pm 16 16 mph 1016.4mb 56f
4:00pm 11 14 mph 1016.8mb 56f
3:00pm 17 18 mph 1017.2mb 56f
2:00pm 15 16 mph 1017.6mb 55f
1:00pm 15 16 mph 1018.3mb 55f
12:00pm 17 20 mph 1018.5mb 55f
11:00am 15 17 mph 1018.8mb 56f
10:00am 20 22 mph 1019mb 56f
9:00am 24 25 mph 1018.5mb 56f
8:00am 20 22 mph 1018.6mb 55f
7:00am 17 18 mph 1018.7mb 55f
6:00am 17 18 mph 1018.5mb 56f
5:00am 20 22 mph 1018.6mb 56f
4:00am 10 13 mph 1018.5mb 56f
3:00am 7 8 mph 1018.8mb 56f
2:00am 8 9 mph 1019mb 55f
1:00am 11 13 mph 1019.4mb 56f
12:00am 7 8 mph 1019.7mb 56f
Mon 09/18 11:00pm 8 10 mph 1019.8mb 56f
10:00pm 14 16 mph 1019.2mb 56f
9:00pm 14 15 mph 1019.3mb 55f
8:00pm 11 14 mph 1019.3mb 56f
7:00pm 10 11 mph 1019.4mb 56f
6:00pm 8 9 mph 1019.8mb 54f
5:00pm 11 13 mph 1019.9mb 54f
4:00pm 11 11 mph 1019.8mb 54f
3:00pm 10 11 mph 1020.5mb 55f
2:00pm 10 11 mph 1021mb 55f
1:00pm 13 15 mph 1021.7mb 55f
12:00pm 13 14 mph 1022.2mb 55f
11:00am 15 16 mph 1022.5mb 55f
10:00am 7 8 mph 1022.1mb 54f
9:00am 6 7 mph 1021.6mb 53f
8:00am 8 10 mph 1022.1mb 52f
7:00am 10 10 mph 1021.9mb 52f
6:00am 8 9 mph 1021.6mb 53f
5:00am 11 13 mph 1021.3mb 54f
4:00am 11 13 mph 1020.9mb 54f
3:00am 13 14 mph 1020.9mb 54f
2:00am 14 16 mph 1021.3mb 54f
1:00am 15 16 mph 1021.3mb 54f
12:00am 18 21 mph 1021mb 54f
Sun 09/17 11:00pm 23 25 mph 1020.6mb 54f
10:00pm 25 28 mph 1019.9mb 55f
9:00pm 25 28 mph 1019.3mb 56f
8:00pm 16 18 mph 1018.9mb 57f
7:00pm 22 24 mph 1018.1mb 56f
6:00pm 20 22 mph 1017.9mb 56f
5:00pm 20 21 mph 1017.4mb 56f
4:00pm 22 24 mph 1017.1mb 56f
3:00pm 21 24 mph 1016.9mb 54f
2:00pm 25 29 mph 1016.4mb 54f
1:00pm 22 24 mph 1016.1mb 54f